sensor_id;sensor_type;location;lat;lon;timestamp;pressure;altitude;pressure_sealevel;temperature;humidity
18436;BME280;9346;52.006;4.720;2022-12-07T00:01:05;101831.78;;;5.94;100.00
18436;BME280;9346;52.006;4.720;2022-12-07T00:03:33;101816.69;;;5.91;100.00
18436;BME280;9346;52.006;4.720;2022-12-07T00:06:00;101805.09;;;5.89;100.00
18436;BME280;9346;52.006;4.720;2022-12-07T00:08:28;101796.28;;;5.87;100.00
18436;BME280;9346;52.006;4.720;2022-12-07T00:11:01;101795.03;;;5.90;100.00
18436;BME280;9346;52.006;4.720;2022-12-07T00:13:32;101793.72;;;5.92;100.00
18436;BME280;9346;52.006;4.720;2022-12-07T00:16:02;101796.88;;;5.96;100.00
18436;BME280;9346;52.006;4.720;2022-12-07T00:18:32;101802.94;;;5.98;100.00
18436;BME280;9346;52.006;4.720;2022-12-07T00:21:00;101812.00;;;5.98;100.00
18436;BME280;9346;52.006;4.720;2022-12-07T00:23:28;101804.00;;;5.97;100.00
18436;BME280;9346;52.006;4.720;2022-12-07T00:25:55;101800.66;;;5.95;100.00
18436;BME280;9346;52.006;4.720;2022-12-07T00:28:21;101789.13;;;5.93;100.00
18436;BME280;9346;52.006;4.720;2022-12-07T00:30:50;101789.72;;;5.95;100.00
18436;BME280;9346;52.006;4.720;2022-12-07T00:33:17;101801.28;;;5.97;100.00
18436;BME280;9346;52.006;4.720;2022-12-07T00:35:44;101784.88;;;5.97;100.00
18436;BME280;9346;52.006;4.720;2022-12-07T00:38:11;101791.19;;;5.97;100.00
18436;BME280;9346;52.006;4.720;2022-12-07T00:40:38;101784.88;;;5.97;100.00
18436;BME280;9346;52.006;4.720;2022-12-07T00:43:04;101775.59;;;5.98;100.00
18436;BME280;9346;52.006;4.720;2022-12-07T00:45:32;101778.97;;;6.00;100.00
18436;BME280;9346;52.006;4.720;2022-12-07T00:48:00;101773.50;;;6.00;100.00
18436;BME280;9346;52.006;4.720;2022-12-07T00:50:28;101776.00;;;6.01;100.00
18436;BME280;9346;52.006;4.720;2022-12-07T00:52:55;101785.28;;;6.00;100.00
18436;BME280;9346;52.006;4.720;2022-12-07T00:55:22;101779.41;;;5.97;100.00
18436;BME280;9346;52.006;4.720;2022-12-07T00:57:50;101763.44;;;5.94;100.00
18436;BME280;9346;52.006;4.720;2022-12-07T01:00:18;101765.53;;;5.92;100.00
18436;BME280;9346;52.006;4.720;2022-12-07T01:02:44;101772.91;;;5.91;100.00
18436;BME280;9346;52.006;4.720;2022-12-07T01:05:14;101769.34;;;5.91;100.00
18436;BME280;9346;52.006;4.720;2022-12-07T01:07:41;101776.47;;;5.92;100.00
18436;BME280;9346;52.006;4.720;2022-12-07T01:10:08;101783.66;;;5.93;100.00
18436;BME280;9346;52.006;4.720;2022-12-07T01:12:35;101790.78;;;5.94;100.00
18436;BME280;9346;52.006;4.720;2022-12-07T01:15:02;101784.25;;;5.95;100.00
18436;BME280;9346;52.006;4.720;2022-12-07T01:17:29;101789.50;;;5.96;100.00
18436;BME280;9346;52.006;4.720;2022-12-07T01:19:56;101784.88;;;5.97;100.00
18436;BME280;9346;52.006;4.720;2022-12-07T01:22:26;101790.75;;;6.00;100.00
18436;BME280;9346;52.006;4.720;2022-12-07T01:24:53;101784.66;;;5.98;100.00
18436;BME280;9346;52.006;4.720;2022-12-07T01:27:20;101791.56;;;6.01;100.00
18436;BME280;9346;52.006;4.720;2022-12-07T01:29:47;101787.75;;;6.02;100.00
18436;BME280;9346;52.006;4.720;2022-12-07T01:32:14;101791.34;;;6.02;100.00
18436;BME280;9346;52.006;4.720;2022-12-07T01:34:41;101777.66;;;6.02;100.00
18436;BME280;9346;52.006;4.720;2022-12-07T01:37:08;101786.50;;;6.04;100.00
18436;BME280;9346;52.006;4.720;2022-12-07T01:39:36;101793.84;;;6.04;100.00
18436;BME280;9346;52.006;4.720;2022-12-07T01:42:03;101784.59;;;6.05;100.00
18436;BME280;9346;52.006;4.720;2022-12-07T01:44:30;101784.59;;;6.05;100.00
18436;BME280;9346;52.006;4.720;2022-12-07T01:47:00;101779.97;;;6.05;100.00
18436;BME280;9346;52.006;4.720;2022-12-07T01:49:33;101776.38;;;6.05;100.00
18436;BME280;9346;52.006;4.720;2022-12-07T01:52:09;101784.34;;;6.06;100.00
18436;BME280;9346;52.006;4.720;2022-12-07T01:54:42;101778.06;;;6.06;100.00
18436;BME280;9346;52.006;4.720;2022-12-07T01:57:10;101783.53;;;6.06;100.00
18436;BME280;9346;52.006;4.720;2022-12-07T01:59:38;101778.06;;;6.06;100.00
18436;BME280;9346;52.006;4.720;2022-12-07T02:02:09;101779.13;;;6.05;100.00
18436;BME280;9346;52.006;4.720;2022-12-07T02:04:37;101770.91;;;6.05;100.00
18436;BME280;9346;52.006;4.720;2022-12-07T02:07:05;101774.72;;;6.04;100.00
18436;BME280;9346;52.006;4.720;2022-12-07T02:09:31;101769.47;;;6.02;100.00
18436;BME280;9346;52.006;4.720;2022-12-07T02:12:00;101776.81;;;6.02;100.00
18436;BME280;9346;52.006;4.720;2022-12-07T02:14:28;101776.81;;;6.02;100.00
18436;BME280;9346;52.006;4.720;2022-12-07T02:17:05;101773.50;;;6.00;100.00
18436;BME280;9346;52.006;4.720;2022-12-07T02:20:00;101758.75;;;6.01;100.00
18436;BME280;9346;52.006;4.720;2022-12-07T02:22:48;101762.56;;;6.00;100.00
18436;BME280;9346;52.006;4.720;2022-12-07T02:25:25;101761.47;;;6.01;100.00
18436;BME280;9346;52.006;4.720;2022-12-07T02:28:01;101765.50;;;5.98;100.00
18436;BME280;9346;52.006;4.720;2022-12-07T02:30:36;101765.72;;;5.97;100.00
18436;BME280;9346;52.006;4.720;2022-12-07T02:33:08;101758.59;;;5.96;100.00
18436;BME280;9346;52.006;4.720;2022-12-07T02:35:40;101760.47;;;5.95;100.00
18436;BME280;9346;52.006;4.720;2022-12-07T02:38:13;101761.53;;;5.94;100.00
18436;BME280;9346;52.006;4.720;2022-12-07T02:40:45;101755.44;;;5.92;100.00
18436;BME280;9346;52.006;4.720;2022-12-07T02:43:16;101755.66;;;5.91;100.00
18436;BME280;9346;52.006;4.720;2022-12-07T02:45:47;101751.28;;;5.90;100.00
18436;BME280;9346;52.006;4.720;2022-12-07T02:48:17;101747.47;;;5.91;100.00
18436;BME280;9346;52.006;4.720;2022-12-07T02:50:49;101744.94;;;5.89;100.00
18436;BME280;9346;52.006;4.720;2022-12-07T02:53:30;101748.31;;;5.91;100.00
18436;BME280;9346;52.006;4.720;2022-12-07T02:55:58;101746.63;;;5.90;100.00
18436;BME280;9346;52.006;4.720;2022-12-07T02:58:33;101757.34;;;5.92;100.00
18436;BME280;9346;52.006;4.720;2022-12-07T03:01:11;101761.13;;;5.91;100.00
18436;BME280;9346;52.006;4.720;2022-12-07T03:03:44;101756.75;;;5.90;100.00
18436;BME280;9346;52.006;4.720;2022-12-07T03:06:20;101755.66;;;5.91;100.00
18436;BME280;9346;52.006;4.720;2022-12-07T03:08:56;101764.72;;;5.91;100.00
18436;BME280;9346;52.006;4.720;2022-12-07T03:11:29;101759.47;;;5.90;100.00
18436;BME280;9346;52.006;4.720;2022-12-07T03:14:04;101753.38;;;5.88;100.00
18436;BME280;9346;52.006;4.720;2022-12-07T03:16:43;101753.16;;;5.89;100.00
18436;BME280;9346;52.006;4.720;2022-12-07T03:19:15;101750.41;;;5.89;100.00
18436;BME280;9346;52.006;4.720;2022-12-07T03:21:46;101758.63;;;5.89;100.00
18436;BME280;9346;52.006;4.720;2022-12-07T03:24:17;101754.81;;;5.90;100.00
18436;BME280;9346;52.006;4.720;2022-12-07T03:26:47;101747.91;;;5.88;100.00
18436;BME280;9346;52.006;4.720;2022-12-07T03:29:19;101749.56;;;5.89;100.00
18436;BME280;9346;52.006;4.720;2022-12-07T03:31:55;101749.56;;;5.89;100.00
18436;BME280;9346;52.006;4.720;2022-12-07T03:34:29;101759.47;;;5.90;100.00
18436;BME280;9346;52.006;4.720;2022-12-07T03:37:02;101753.38;;;5.88;100.00
18436;BME280;9346;52.006;4.720;2022-12-07T03:39:34;101763.72;;;5.86;100.00
18436;BME280;9346;52.006;4.720;2022-12-07T03:42:05;101757.63;;;5.84;100.00
18436;BME280;9346;52.006;4.720;2022-12-07T03:44:35;101743.50;;;5.80;100.00
18436;BME280;9346;52.006;4.720;2022-12-07T03:47:11;101740.78;;;5.80;100.00
18436;BME280;9346;52.006;4.720;2022-12-07T03:49:43;101734.50;;;5.80;100.00
18436;BME280;9346;52.006;4.720;2022-12-07T03:52:18;101737.84;;;5.82;100.00
18436;BME280;9346;52.006;4.720;2022-12-07T03:54:53;101734.91;;;5.83;100.00
18436;BME280;9346;52.006;4.720;2022-12-07T03:57:22;101727.53;;;5.84;100.00
18436;BME280;9346;52.006;4.720;2022-12-07T03:59:51;101731.94;;;5.85;100.00
18436;BME280;9346;52.006;4.720;2022-12-07T04:02:20;101732.56;;;5.87;100.00
18436;BME280;9346;52.006;4.720;2022-12-07T04:04:47;101727.69;;;5.89;100.00
18436;BME280;9346;52.006;4.720;2022-12-07T04:07:14;101725.59;;;5.91;100.00
18436;BME280;9346;52.006;4.720;2022-12-07T04:09:41;101729.19;;;5.91;100.00
18436;BME280;9346;52.006;4.720;2022-12-07T04:12:07;101734.63;;;5.91;100.00
18436;BME280;9346;52.006;4.720;2022-12-07T04:14:34;101726.22;;;5.93;100.00
18436;BME280;9346;52.006;4.720;2022-12-07T04:17:02;101728.94;;;5.93;100.00
18436;BME280;9346;52.006;4.720;2022-12-07T04:19:32;101730.84;;;5.92;100.00
18436;BME280;9346;52.006;4.720;2022-12-07T04:22:01;101730.00;;;5.92;100.00
18436;BME280;9346;52.006;4.720;2022-12-07T04:24:30;101720.13;;;5.91;100.00
18436;BME280;9346;52.006;4.720;2022-12-07T04:26:57;101722.84;;;5.91;100.00
18436;BME280;9346;52.006;4.720;2022-12-07T04:29:24;101724.97;;;5.89;100.00
18436;BME280;9346;52.006;4.720;2022-12-07T04:31:51;101719.28;;;5.90;100.00
18436;BME280;9346;52.006;4.720;2022-12-07T04:34:18;101714.25;;;5.87;100.00
18436;BME280;9346;52.006;4.720;2022-12-07T04:36:47;101715.53;;;5.85;100.00
18436;BME280;9346;52.006;4.720;2022-12-07T04:39:19;101715.75;;;5.83;100.00
18436;BME280;9346;52.006;4.720;2022-12-07T04:41:46;101726.91;;;5.82;100.00
18436;BME280;9346;52.006;4.720;2022-12-07T04:44:14;101731.97;;;5.78;100.00
18436;BME280;9346;52.006;4.720;2022-12-07T04:46:41;101738.53;;;5.71;100.00
18436;BME280;9346;52.006;4.720;2022-12-07T04:49:09;101731.84;;;5.67;100.00
18436;BME280;9346;52.006;4.720;2022-12-07T04:51:36;101722.38;;;5.63;100.00
18436;BME280;9346;52.006;4.720;2022-12-07T04:54:05;101718.00;;;5.62;100.00
18436;BME280;9346;52.006;4.720;2022-12-07T04:56:32;101712.09;;;5.65;100.00
18436;BME280;9346;52.006;4.720;2022-12-07T04:59:00;101704.75;;;5.65;100.00
18436;BME280;9346;52.006;4.720;2022-12-07T05:01:27;101707.25;;;5.67;100.00
18436;BME280;9346;52.006;4.720;2022-12-07T05:03:54;101706.81;;;5.70;100.00
18436;BME280;9346;52.006;4.720;2022-12-07T05:06:21;101705.53;;;5.72;100.00
18436;BME280;9346;52.006;4.720;2022-12-07T05:08:48;101696.88;;;5.75;100.00
18436;BME280;9346;52.006;4.720;2022-12-07T05:11:16;101698.31;;;5.78;100.00
18436;BME280;9346;52.006;4.720;2022-12-07T05:13:57;101701.50;;;5.81;100.00
18436;BME280;9346;52.006;4.720;2022-12-07T05:16:24;101694.09;;;5.82;100.00
18436;BME280;9346;52.006;4.720;2022-12-07T05:18:51;101696.03;;;5.81;100.00
18436;BME280;9346;52.006;4.720;2022-12-07T05:21:18;101694.09;;;5.82;100.00
18436;BME280;9346;52.006;4.720;2022-12-07T05:23:45;101690.56;;;5.81;100.00
18436;BME280;9346;52.006;4.720;2022-12-07T05:26:12;101688.41;;;5.83;100.00
18436;BME280;9346;52.006;4.720;2022-12-07T05:28:42;101692.00;;;5.84;100.00
18436;BME280;9346;52.006;4.720;2022-12-07T05:31:09;101690.34;;;5.83;100.00
18436;BME280;9346;52.006;4.720;2022-12-07T05:33:36;101687.81;;;5.81;100.00
18436;BME280;9346;52.006;4.720;2022-12-07T05:36:03;101688.81;;;5.80;100.00
18436;BME280;9346;52.006;4.720;2022-12-07T05:38:32;101696.84;;;5.82;100.00
18436;BME280;9346;52.006;4.720;2022-12-07T05:41:00;101699.56;;;5.82;100.00
18436;BME280;9346;52.006;4.720;2022-12-07T05:43:28;101699.56;;;5.82;100.00
18436;BME280;9346;52.006;4.720;2022-12-07T05:45:56;101693.28;;;5.81;100.00
18436;BME280;9346;52.006;4.720;2022-12-07T05:48:23;101708.41;;;5.84;100.00
18436;BME280;9346;52.006;4.720;2022-12-07T05:50:51;101707.56;;;5.83;100.00
18436;BME280;9346;52.006;4.720;2022-12-07T05:53:19;101702.31;;;5.82;100.00
18436;BME280;9346;52.006;4.720;2022-12-07T05:55:46;101700.41;;;5.82;100.00
18436;BME280;9346;52.006;4.720;2022-12-07T05:58:13;101698.94;;;5.80;100.00
18436;BME280;9346;52.006;4.720;2022-12-07T06:00:59;101701.91;;;5.78;100.00
18436;BME280;9346;52.006;4.720;2022-12-07T06:03:26;101697.03;;;5.80;100.00
18436;BME280;9346;52.006;4.720;2022-12-07T06:05:52;101696.22;;;5.80;100.00
18436;BME280;9346;52.006;4.720;2022-12-07T06:08:20;101697.03;;;5.80;100.00
18436;BME280;9346;52.006;4.720;2022-12-07T06:10:47;101697.88;;;5.81;100.00
18436;BME280;9346;52.006;4.720;2022-12-07T06:13:36;101693.47;;;5.80;100.00
18436;BME280;9346;52.006;4.720;2022-12-07T06:16:04;101699.16;;;5.78;100.00
18436;BME280;9346;52.006;4.720;2022-12-07T06:18:32;101701.06;;;5.78;100.00
18436;BME280;9346;52.006;4.720;2022-12-07T06:20:58;101697.47;;;5.77;100.00
18436;BME280;9346;52.006;4.720;2022-12-07T06:23:25;101699.16;;;5.78;100.00
18436;BME280;9346;52.006;4.720;2022-12-07T06:25:52;101701.06;;;5.78;100.00
18436;BME280;9346;52.006;4.720;2022-12-07T06:28:19;101694.13;;;5.75;100.00
18436;BME280;9346;52.006;4.720;2022-12-07T06:30:46;101690.56;;;5.75;100.00
18436;BME280;9346;52.006;4.720;2022-12-07T06:33:14;101694.81;;;5.71;100.00
18436;BME280;9346;52.006;4.720;2022-12-07T06:35:43;101695.03;;;5.69;100.00
18436;BME280;9346;52.006;4.720;2022-12-07T06:38:11;101696.91;;;5.69;100.00
18436;BME280;9346;52.006;4.720;2022-12-07T06:40:38;101702.00;;;5.65;100.00
18436;BME280;9346;52.006;4.720;2022-12-07T06:43:05;101692.53;;;5.61;100.00
18436;BME280;9346;52.006;4.720;2022-12-07T06:45:32;101698.22;;;5.60;100.00
18436;BME280;9346;52.006;4.720;2022-12-07T06:47:59;101690.50;;;5.57;100.00
18436;BME280;9346;52.006;4.720;2022-12-07T06:50:27;101689.03;;;5.54;100.00
18436;BME280;9346;52.006;4.720;2022-12-07T06:52:54;101700.19;;;5.53;100.00
18436;BME280;9346;52.006;4.720;2022-12-07T06:55:21;101713.25;;;5.51;100.00
18436;BME280;9346;52.006;4.720;2022-12-07T06:57:48;101725.88;;;5.45;100.00
18436;BME280;9346;52.006;4.720;2022-12-07T07:00:16;101725.47;;;5.42;100.00
18436;BME280;9346;52.006;4.720;2022-12-07T07:02:43;101726.78;;;5.39;100.00
18436;BME280;9346;52.006;4.720;2022-12-07T07:05:09;101721.53;;;5.38;100.00
18436;BME280;9346;52.006;4.720;2022-12-07T07:07:39;101714.16;;;5.38;100.00
18436;BME280;9346;52.006;4.720;2022-12-07T07:10:07;101718.56;;;5.39;100.00
18436;BME280;9346;52.006;4.720;2022-12-07T07:12:33;101720.03;;;5.42;100.00
18436;BME280;9346;52.006;4.720;2022-12-07T07:15:00;101720.03;;;5.42;100.00
18436;BME280;9346;52.006;4.720;2022-12-07T07:17:27;101720.88;;;5.42;100.00
18436;BME280;9346;52.006;4.720;2022-12-07T07:19:54;101715.16;;;5.44;100.00
18436;BME280;9346;52.006;4.720;2022-12-07T07:22:21;101713.28;;;5.44;100.00
18436;BME280;9346;52.006;4.720;2022-12-07T07:24:49;101701.50;;;5.44;100.00
18436;BME280;9346;52.006;4.720;2022-12-07T07:27:16;101704.47;;;5.42;100.00
18436;BME280;9346;52.006;4.720;2022-12-07T07:29:43;101706.56;;;5.40;100.00
18436;BME280;9346;52.006;4.720;2022-12-07T07:32:10;101699.22;;;5.41;100.00
18436;BME280;9346;52.006;4.720;2022-12-07T07:34:37;101693.97;;;5.39;100.00
18436;BME280;9346;52.006;4.720;2022-12-07T07:37:05;101698.81;;;5.37;100.00
18436;BME280;9346;52.006;4.720;2022-12-07T07:39:32;101703.88;;;5.34;100.00
18436;BME280;9346;52.006;4.720;2022-12-07T07:42:00;101702.44;;;5.31;100.00
18436;BME280;9346;52.006;4.720;2022-12-07T07:44:27;101698.03;;;5.30;100.00
18436;BME280;9346;52.006;4.720;2022-12-07T07:46:54;101707.50;;;5.28;100.00
18436;BME280;9346;52.006;4.720;2022-12-07T07:49:21;101710.25;;;5.28;100.00
18436;BME280;9346;52.006;4.720;2022-12-07T07:51:48;101713.41;;;5.25;100.00
18436;BME280;9346;52.006;4.720;2022-12-07T07:54:15;101718.88;;;5.25;100.00
18436;BME280;9346;52.006;4.720;2022-12-07T07:56:42;101718.88;;;5.25;100.00
18436;BME280;9346;52.006;4.720;2022-12-07T07:59:11;101727.28;;;5.23;100.00
18436;BME280;9346;52.006;4.720;2022-12-07T08:01:37;101725.38;;;5.24;100.00
18436;BME280;9346;52.006;4.720;2022-12-07T08:04:04;101722.63;;;5.24;100.00
18436;BME280;9346;52.006;4.720;2022-12-07T08:06:31;101714.44;;;5.24;100.00
18436;BME280;9346;52.006;4.720;2022-12-07T08:08:58;101714.44;;;5.24;100.00
18436;BME280;9346;52.006;4.720;2022-12-07T08:11:25;101715.72;;;5.21;100.00
18436;BME280;9346;52.006;4.720;2022-12-07T08:13:53;101718.44;;;5.21;100.00
18436;BME280;9346;52.006;4.720;2022-12-07T08:16:21;101715.50;;;5.23;100.00
18436;BME280;9346;52.006;4.720;2022-12-07T08:18:48;101715.50;;;5.23;100.00
18436;BME280;9346;52.006;4.720;2022-12-07T08:21:15;101705.66;;;5.22;100.00
18436;BME280;9346;52.006;4.720;2022-12-07T08:23:42;101717.38;;;5.22;100.00
18436;BME280;9346;52.006;4.720;2022-12-07T08:26:12;101710.03;;;5.23;100.00
18436;BME280;9346;52.006;4.720;2022-12-07T08:28:39;101725.38;;;5.24;100.00
18436;BME280;9346;52.006;4.720;2022-12-07T08:31:10;101716.34;;;5.23;100.00
18436;BME280;9346;52.006;4.720;2022-12-07T08:33:40;101723.69;;;5.23;100.00
18436;BME280;9346;52.006;4.720;2022-12-07T08:36:10;101724.75;;;5.22;100.00
18436;BME280;9346;52.006;4.720;2022-12-07T08:38:39;101732.97;;;5.22;100.00
18436;BME280;9346;52.006;4.720;2022-12-07T08:41:07;101738.19;;;5.23;100.00
18436;BME280;9346;52.006;4.720;2022-12-07T08:43:34;101740.50;;;5.26;100.00
18436;BME280;9346;52.006;4.720;2022-12-07T08:46:06;101733.97;;;5.27;100.00
18436;BME280;9346;52.006;4.720;2022-12-07T08:48:39;101734.34;;;5.31;100.00
18436;BME280;9346;52.006;4.720;2022-12-07T08:51:07;101730.97;;;5.35;100.00
18436;BME280;9346;52.006;4.720;2022-12-07T08:53:34;101725.28;;;5.37;100.00
18436;BME280;9346;52.006;4.720;2022-12-07T08:56:02;101726.78;;;5.39;100.00
18436;BME280;9346;52.006;4.720;2022-12-07T08:58:30;101722.75;;;5.42;100.00
18436;BME280;9346;52.006;4.720;2022-12-07T09:00:57;101718.75;;;5.44;100.00
18436;BME280;9346;52.006;4.720;2022-12-07T09:03:24;101716.63;;;5.46;100.00
18436;BME280;9346;52.006;4.720;2022-12-07T09:05:52;101718.31;;;5.47;100.00
18436;BME280;9346;52.006;4.720;2022-12-07T09:08:20;101717.88;;;5.50;100.00
18436;BME280;9346;52.006;4.720;2022-12-07T09:10:48;101716.78;;;5.51;100.00
18436;BME280;9346;52.006;4.720;2022-12-07T09:13:15;101717.22;;;5.55;100.00
18436;BME280;9346;52.006;4.720;2022-12-07T09:15:42;101717.22;;;5.55;100.00
18436;BME280;9346;52.006;4.720;2022-12-07T09:18:09;101721.16;;;5.59;100.00
18436;BME280;9346;52.006;4.720;2022-12-07T09:20:37;101720.72;;;5.62;100.00
18436;BME280;9346;52.006;4.720;2022-12-07T09:23:06;101727.41;;;5.66;100.00
18436;BME280;9346;52.006;4.720;2022-12-07T09:25:34;101724.03;;;5.70;100.00
18436;BME280;9346;52.006;4.720;2022-12-07T09:28:01;101731.56;;;5.75;100.00
18436;BME280;9346;52.006;4.720;2022-12-07T09:30:28;101732.19;;;5.77;100.00
18436;BME280;9346;52.006;4.720;2022-12-07T09:32:55;101729.84;;;5.80;100.00
18436;BME280;9346;52.006;4.720;2022-12-07T09:35:23;101731.34;;;5.83;100.00
18436;BME280;9346;52.006;4.720;2022-12-07T09:37:52;101722.94;;;5.84;100.00
18436;BME280;9346;52.006;4.720;2022-12-07T09:40:22;101722.44;;;5.87;100.00
18436;BME280;9346;52.006;4.720;2022-12-07T09:42:51;101731.91;;;5.91;100.00
18436;BME280;9346;52.006;4.720;2022-12-07T09:45:23;101728.72;;;5.94;100.00
18436;BME280;9346;52.006;4.720;2022-12-07T09:47:51;101731.84;;;5.98;100.00
18436;BME280;9346;52.006;4.720;2022-12-07T09:50:20;101721.31;;;6.01;100.00
18436;BME280;9346;52.006;4.720;2022-12-07T09:52:48;101724.19;;;6.06;100.00
18436;BME280;9346;52.006;4.720;2022-12-07T09:55:16;101715.53;;;6.09;100.00
18436;BME280;9346;52.006;4.720;2022-12-07T09:57:47;101715.31;;;6.11;100.00
18436;BME280;9346;52.006;4.720;2022-12-07T10:00:18;101708.81;;;6.12;100.00
18436;BME280;9346;52.006;4.720;2022-12-07T10:02:51;101708.81;;;6.12;100.00
18436;BME280;9346;52.006;4.720;2022-12-07T10:05:22;101707.97;;;6.11;100.00
18436;BME280;9346;52.006;4.720;2022-12-07T10:07:51;101714.88;;;6.14;100.00
18436;BME280;9346;52.006;4.720;2022-12-07T10:10:23;101709.41;;;6.14;100.00
18436;BME280;9346;52.006;4.720;2022-12-07T10:12:59;101705.38;;;6.16;100.00
18436;BME280;9346;52.006;4.720;2022-12-07T10:15:44;101705.16;;;6.18;100.00
18436;BME280;9346;52.006;4.720;2022-12-07T10:18:26;101707.66;;;6.19;100.00
18436;BME280;9346;52.006;4.720;2022-12-07T10:21:01;101702.59;;;6.23;100.00
18436;BME280;9346;52.006;4.720;2022-12-07T10:23:29;101705.50;;;6.28;100.00
18436;BME280;9346;52.006;4.720;2022-12-07T10:25:56;101705.03;;;6.31;100.00
18436;BME280;9346;52.006;4.720;2022-12-07T10:28:33;101702.44;;;6.36;100.00
18436;BME280;9346;52.006;4.720;2022-12-07T10:31:02;101702.44;;;6.36;100.00
18436;BME280;9346;52.006;4.720;2022-12-07T10:33:32;101695.91;;;6.37;100.00
18436;BME280;9346;52.006;4.720;2022-12-07T10:36:01;101701.16;;;6.38;100.00
18436;BME280;9346;52.006;4.720;2022-12-07T10:38:44;101689.97;;;6.40;100.00
18436;BME280;9346;52.006;4.720;2022-12-07T10:41:11;101684.50;;;6.40;100.00
18436;BME280;9346;52.006;4.720;2022-12-07T10:43:47;101684.06;;;6.43;100.00
18436;BME280;9346;52.006;4.720;2022-12-07T10:52:34;101675.34;;;6.52;100.00
18436;BME280;9346;52.006;4.720;2022-12-07T10:55:15;101671.44;;;6.60;100.00
18436;BME280;9346;52.006;4.720;2022-12-07T10:58:05;101682.56;;;6.65;100.00
18436;BME280;9346;52.006;4.720;2022-12-07T11:00:40;101676.63;;;6.68;100.00
18436;BME280;9346;52.006;4.720;2022-12-07T11:03:24;101669.03;;;6.70;100.00
18436;BME280;9346;52.006;4.720;2022-12-07T11:05:57;101661.41;;;6.72;100.00
18436;BME280;9346;52.006;4.720;2022-12-07T11:08:39;101659.28;;;6.74;100.00
18436;BME280;9346;52.006;4.720;2022-12-07T11:11:14;101653.81;;;6.74;100.00
18436;BME280;9346;52.006;4.720;2022-12-07T11:13:47;101649.78;;;6.76;100.00
18436;BME280;9346;52.006;4.720;2022-12-07T11:16:27;101654.41;;;6.76;100.00
18436;BME280;9346;52.006;4.720;2022-12-07T11:19:11;101648.91;;;6.76;100.00
18436;BME280;9346;52.006;4.720;2022-12-07T11:21:46;101648.91;;;6.76;100.00
18436;BME280;9346;52.006;4.720;2022-12-07T11:24:17;101645.94;;;6.77;100.00
18436;BME280;9346;52.006;4.720;2022-12-07T11:26:58;101638.34;;;6.79;100.00
18436;BME280;9346;52.006;4.720;2022-12-07T11:30:01;101632.66;;;6.81;100.00
18436;BME280;9346;52.006;4.720;2022-12-07T11:32:44;101630.53;;;6.83;100.00
18436;BME280;9346;52.006;4.720;2022-12-07T11:35:22;101622.66;;;6.86;100.00
18436;BME280;9346;52.006;4.720;2022-12-07T11:37:55;101627.47;;;6.91;100.00
18436;BME280;9346;52.006;4.720;2022-12-07T11:40:26;101619.84;;;6.93;100.00
18436;BME280;9346;52.006;4.720;2022-12-07T11:42:58;101622.94;;;6.97;100.00
18436;BME280;9346;52.006;4.720;2022-12-07T11:45:28;101617.63;;;7.02;100.00
18436;BME280;9346;52.006;4.720;2022-12-07T11:48:00;101607.63;;;7.07;100.00
18436;BME280;9346;52.006;4.720;2022-12-07T11:50:33;101602.31;;;7.12;100.00
18436;BME280;9346;52.006;4.720;2022-12-07T11:53:03;101595.28;;;7.16;100.00
18436;BME280;9346;52.006;4.720;2022-12-07T11:55:41;101598.38;;;7.20;100.00
18436;BME280;9346;52.006;4.720;2022-12-07T11:58:20;101598.75;;;7.23;100.00
18436;BME280;9346;52.006;4.720;2022-12-07T12:00:52;101598.75;;;7.23;100.00
18436;BME280;9346;52.006;4.720;2022-12-07T12:03:29;101591.84;;;7.21;100.00
18436;BME280;9346;52.006;4.720;2022-12-07T12:05:58;101585.75;;;7.19;100.00
18436;BME280;9346;52.006;4.720;2022-12-07T12:08:29;101596.47;;;7.20;100.00
18436;BME280;9346;52.006;4.720;2022-12-07T12:11:03;101596.03;;;7.23;100.00
18436;BME280;9346;52.006;4.720;2022-12-07T12:14:11;101591.25;;;7.30;100.00
18436;BME280;9346;52.006;4.720;2022-12-07T12:17:10;101586.41;;;7.32;100.00
18436;BME280;9346;52.006;4.720;2022-12-07T12:19:54;101589.13;;;7.32;100.00
18436;BME280;9346;52.006;4.720;2022-12-07T12:22:32;101581.50;;;7.34;100.00
18436;BME280;9346;52.006;4.720;2022-12-07T12:25:04;101572.69;;;7.32;100.00
18436;BME280;9346;52.006;4.720;2022-12-07T12:27:34;101579.84;;;7.33;100.00
18436;BME280;9346;52.006;4.720;2022-12-07T12:30:06;101586.63;;;7.31;100.00
18436;BME280;9346;52.006;4.720;2022-12-07T12:32:38;101581.84;;;7.26;100.00
18436;BME280;9346;52.006;4.720;2022-12-07T12:35:29;101571.25;;;7.18;100.00
18436;BME280;9346;52.006;4.720;2022-12-07T12:38:26;101562.03;;;7.13;100.00
18436;BME280;9346;52.006;4.720;2022-12-07T12:40:54;101556.56;;;7.13;100.00
18436;BME280;9346;52.006;4.720;2022-12-07T12:43:45;101556.56;;;7.13;100.00
18436;BME280;9346;52.006;4.720;2022-12-07T12:46:51;101551.31;;;7.11;100.00
18436;BME280;9346;52.006;4.720;2022-12-07T12:49:42;101551.06;;;7.13;100.00
18436;BME280;9346;52.006;4.720;2022-12-07T12:55:17;101542.38;;;7.16;100.00
18436;BME280;9346;52.006;4.720;2022-12-07T12:57:47;101536.66;;;7.17;100.00
18436;BME280;9346;52.006;4.720;2022-12-07T13:00:19;101530.16;;;7.18;100.00
18436;BME280;9346;52.006;4.720;2022-12-07T13:02:48;101516.78;;;7.22;100.00
18436;BME280;9346;52.006;4.720;2022-12-07T13:05:19;101527.50;;;7.23;100.00
18436;BME280;9346;52.006;4.720;2022-12-07T13:07:53;101519.91;;;7.25;100.00
18436;BME280;9346;52.006;4.720;2022-12-07T13:10:35;101515.63;;;7.29;100.00
18436;BME280;9346;52.006;4.720;2022-12-07T13:16:38;101513.59;;;7.36;100.00
18436;BME280;9346;52.006;4.720;2022-12-07T13:22:49;101502.06;;;7.46;100.00
18436;BME280;9346;52.006;4.720;2022-12-07T13:28:22;101504.06;;;7.50;100.00
18436;BME280;9346;52.006;4.720;2022-12-07T13:31:02;101502.53;;;7.54;100.00
18436;BME280;9346;52.006;4.720;2022-12-07T13:33:30;101495.97;;;7.55;100.00
18436;BME280;9346;52.006;4.720;2022-12-07T13:35:57;101493.59;;;7.59;100.00
18436;BME280;9346;52.006;4.720;2022-12-07T13:38:28;101495.00;;;7.61;100.00